createdAt,value
2019-02-25T00:00:51.849Z,99.90
2019-02-25T00:03:21.027Z,99.90
2019-02-25T00:06:23.560Z,99.90
2019-02-25T00:08:52.634Z,99.90
2019-02-25T00:11:22.032Z,99.90
2019-02-25T00:13:51.356Z,99.90
2019-02-25T00:16:20.797Z,99.90
2019-02-25T00:18:49.996Z,99.90
2019-02-25T00:21:19.325Z,99.90
2019-02-25T00:23:48.503Z,99.90
2019-02-25T00:26:17.576Z,99.90
2019-02-25T00:28:50.544Z,99.90
2019-02-25T00:31:19.848Z,99.90
2019-02-25T00:33:49.204Z,99.90
2019-02-25T00:36:18.260Z,99.90
2019-02-25T00:38:47.369Z,99.90
2019-02-25T00:41:16.520Z,99.90
2019-02-25T00:43:45.993Z,99.90
2019-02-25T00:46:15.820Z,99.90
2019-02-25T00:48:44.946Z,99.90
2019-02-25T00:51:14.101Z,99.90
2019-02-25T00:53:45.248Z,99.90
2019-02-25T00:56:14.954Z,99.90
2019-02-25T00:58:44.116Z,99.90
2019-02-25T01:01:13.211Z,99.90
2019-02-25T01:03:42.323Z,99.90
2019-02-25T01:06:12.624Z,99.90
2019-02-25T01:08:41.867Z,99.90
2019-02-25T01:11:11.272Z,99.90
2019-02-25T01:13:40.436Z,99.90
2019-02-25T01:16:09.874Z,99.90
2019-02-25T01:18:38.980Z,99.90
2019-02-25T01:21:08.117Z,99.90
2019-02-25T01:23:37.312Z,99.90
2019-02-25T01:26:08.584Z,99.90
2019-02-25T01:28:37.632Z,99.90
2019-02-25T01:31:06.809Z,99.90
2019-02-25T01:33:35.783Z,99.90
2019-02-25T01:36:04.988Z,99.90
2019-02-25T01:38:34.144Z,99.90
2019-02-25T01:41:03.244Z,99.90
2019-02-25T01:43:32.290Z,99.90
2019-02-25T01:46:01.808Z,99.90
2019-02-25T01:48:31.200Z,99.90
2019-02-25T01:51:01.620Z,99.90
2019-02-25T01:53:31.329Z,99.90
2019-02-25T01:56:00.772Z,99.90
2019-02-25T01:58:30.410Z,99.90
2019-02-25T02:00:59.669Z,99.90
2019-02-25T02:03:28.780Z,99.90
2019-02-25T02:05:57.928Z,99.90
2019-02-25T02:08:27.128Z,99.90
2019-02-25T02:10:56.241Z,99.90
2019-02-25T02:13:25.340Z,99.90
2019-02-25T02:15:54.513Z,99.90
2019-02-25T02:18:24.426Z,99.90
2019-02-25T02:20:54.937Z,99.90
2019-02-25T02:23:24.749Z,99.90
2019-02-25T02:25:53.724Z,99.90
2019-02-25T02:28:23.188Z,99.90
2019-02-25T02:30:52.428Z,99.90
2019-02-25T02:33:21.885Z,99.90
2019-02-25T02:35:51.178Z,99.90
2019-02-25T02:38:20.667Z,99.90
2019-02-25T02:40:51.327Z,99.90
2019-02-25T02:43:21.266Z,99.90
2019-02-25T02:45:57.795Z,99.90
2019-02-25T02:48:33.864Z,99.90
2019-02-25T02:51:02.989Z,99.90
2019-02-25T02:53:32.336Z,99.90
2019-02-25T02:56:01.390Z,99.90
2019-02-25T02:58:31.320Z,99.90
2019-02-25T03:01:00.447Z,99.90
2019-02-25T03:03:29.459Z,99.90
2019-02-25T03:05:59.996Z,99.90
2019-02-25T03:08:29.532Z,99.90
2019-02-25T03:10:58.620Z,99.90
2019-02-25T03:13:27.689Z,99.90
2019-02-25T03:15:56.801Z,99.90
2019-02-25T03:18:26.293Z,99.90
2019-02-25T03:20:55.743Z,99.90
2019-02-25T03:23:24.881Z,99.90
2019-02-25T03:25:54.209Z,99.90
2019-02-25T03:28:23.652Z,99.90
2019-02-25T03:30:52.754Z,99.90
2019-02-25T03:33:22.225Z,99.90
2019-02-25T03:35:51.532Z,99.90
2019-02-25T03:38:21.128Z,99.90
2019-02-25T03:40:50.276Z,99.90
2019-02-25T03:43:19.401Z,99.90
2019-02-25T03:45:48.722Z,99.90
2019-02-25T03:48:17.750Z,99.90
2019-02-25T03:50:46.929Z,99.90
2019-02-25T03:53:16.919Z,99.90
2019-02-25T03:55:45.972Z,99.90
2019-02-25T03:58:18.428Z,99.90
2019-02-25T04:00:47.613Z,99.90
2019-02-25T04:03:17.402Z,99.90
2019-02-25T04:05:46.559Z,99.90
2019-02-25T04:08:15.750Z,99.90
2019-02-25T04:10:45.868Z,99.90
2019-02-25T04:13:14.952Z,99.90
2019-02-25T04:15:45.264Z,99.90
2019-02-25T04:18:14.937Z,99.90
2019-02-25T04:20:44.012Z,99.90
2019-02-25T04:23:13.863Z,99.90
2019-02-25T04:25:43.358Z,99.90
2019-02-25T04:28:17.141Z,99.90
2019-02-25T04:30:47.088Z,99.90
2019-02-25T04:33:16.095Z,99.90
2019-02-25T04:35:45.480Z,99.90
2019-02-25T04:38:15.064Z,99.90
2019-02-25T04:40:44.122Z,99.90
2019-02-25T04:43:13.220Z,99.90
2019-02-25T04:45:42.413Z,99.90
2019-02-25T04:48:11.973Z,99.90
2019-02-25T04:50:41.472Z,99.90
2019-02-25T04:53:10.966Z,99.90
2019-02-25T04:55:40.490Z,99.90
2019-02-25T04:58:09.568Z,99.90
2019-02-25T05:00:38.705Z,99.90
2019-02-25T05:03:09.656Z,99.90
2019-02-25T05:05:38.635Z,99.90
2019-02-25T05:08:07.878Z,99.90
2019-02-25T05:10:56.100Z,99.90
2019-02-25T05:13:26.734Z,99.90
2019-02-25T05:15:56.220Z,99.90
2019-02-25T05:18:25.518Z,99.90
2019-02-25T05:20:55.015Z,99.90
2019-02-25T05:23:24.415Z,99.90
2019-02-25T05:25:53.932Z,99.90
2019-02-25T05:28:23.064Z,99.90
2019-02-25T05:30:52.922Z,99.90
2019-02-25T05:33:22.190Z,99.90
2019-02-25T05:35:54.409Z,99.90
2019-02-25T05:38:26.700Z,99.90
2019-02-25T05:40:55.797Z,99.90
2019-02-25T05:43:25.023Z,99.90
2019-02-25T05:45:54.080Z,99.90
2019-02-25T05:48:23.816Z,99.90
2019-02-25T05:50:53.840Z,99.90
2019-02-25T05:53:22.985Z,99.90
2019-02-25T05:55:53.744Z,99.90
2019-02-25T05:58:22.852Z,99.90
2019-02-25T06:00:52.833Z,99.90
2019-02-25T06:03:25.176Z,99.90
2019-02-25T06:05:54.245Z,99.90
2019-02-25T06:08:25.137Z,99.90
2019-02-25T06:13:31.524Z,99.90
2019-02-25T06:16:02.054Z,99.90
2019-02-25T06:18:31.152Z,99.90
2019-02-25T06:21:00.797Z,99.90
2019-02-25T06:23:29.900Z,99.90
2019-02-25T06:26:01.036Z,99.90
2019-02-25T06:28:30.212Z,99.90
2019-02-25T06:30:59.338Z,99.90
2019-02-25T06:33:28.416Z,99.90
2019-02-25T06:35:57.664Z,99.90
2019-02-25T06:38:26.845Z,99.90
2019-02-25T06:40:56.071Z,99.90
2019-02-25T06:43:25.270Z,99.90
2019-02-25T06:45:54.916Z,99.90
2019-02-25T06:48:24.180Z,99.90
2019-02-25T06:50:57.049Z,99.90
2019-02-25T06:53:26.213Z,99.90
2019-02-25T06:55:55.386Z,99.90
2019-02-25T06:58:26.033Z,99.90
2019-02-25T07:00:55.235Z,99.90
2019-02-25T07:03:24.421Z,99.90
2019-02-25T07:06:03.200Z,99.90
2019-02-25T07:08:50.539Z,99.90
2019-02-25T07:11:27.917Z,99.90
2019-02-25T07:14:06.048Z,99.90
2019-02-25T07:17:01.768Z,99.90
2019-02-25T07:19:47.042Z,99.90
2019-02-25T07:22:44.688Z,99.90
2019-02-25T07:25:24.384Z,99.90
2019-02-25T07:28:11.686Z,99.90
2019-02-25T07:31:08.876Z,99.90
2019-02-25T07:34:02.762Z,99.90
2019-02-25T07:36:49.913Z,99.90
2019-02-25T07:39:38.015Z,99.90
2019-02-25T07:42:12.848Z,99.90
2019-02-25T07:45:13.878Z,99.90
2019-02-25T07:47:48.568Z,99.90
2019-02-25T07:50:33.652Z,99.90
2019-02-25T07:56:32.196Z,99.90
2019-02-25T07:59:20.090Z,99.90
2019-02-25T08:02:08.003Z,99.90
2019-02-25T08:04:56.535Z,99.90
2019-02-25T08:07:42.778Z,99.80
2019-02-25T08:10:31.033Z,95.80
2019-02-25T08:13:37.712Z,94.50
2019-02-25T08:16:23.784Z,95.40
2019-02-25T08:19:11.744Z,99.90
2019-02-25T08:22:18.676Z,98.10
2019-02-25T08:25:16.032Z,98.10
2019-02-25T08:28:03.532Z,97.60
2019-02-25T08:30:54.294Z,96.90
2019-02-25T08:33:31.932Z,95.20
2019-02-25T08:37:22.547Z,92.90
2019-02-25T08:40:02.857Z,92.90
2019-02-25T08:42:36.366Z,91.70
2019-02-25T08:45:28.022Z,88.30
2019-02-25T08:48:13.154Z,86.10
2019-02-25T08:50:42.524Z,85.50
2019-02-25T08:55:47.937Z,80.50
2019-02-25T08:58:17.288Z,80.20
2019-02-25T09:00:46.680Z,80.40
2019-02-25T09:03:16.164Z,81.30
2019-02-25T09:05:46.160Z,76.10
2019-02-25T09:08:15.819Z,77.90
2019-02-25T09:10:51.004Z,75.20
2019-02-25T09:13:20.076Z,78.80
2019-02-25T09:15:49.273Z,74.00
2019-02-25T09:18:18.792Z,74.50
2019-02-25T09:20:48.049Z,70.80
2019-02-25T09:25:52.476Z,68.90
2019-02-25T09:28:21.583Z,67.50
2019-02-25T09:30:51.916Z,65.10
2019-02-25T09:33:20.999Z,60.70
2019-02-25T09:35:50.538Z,65.10
2019-02-25T09:38:19.689Z,58.50
2019-02-25T09:40:49.168Z,58.60
2019-02-25T09:43:18.336Z,58.40
2019-02-25T09:45:47.968Z,59.60
2019-02-25T09:48:18.549Z,57.30
2019-02-25T09:50:49.037Z,57.10
2019-02-25T09:53:18.261Z,57.00
2019-02-25T09:55:47.637Z,56.20
2019-02-25T09:58:17.781Z,57.00
2019-02-25T10:00:48.112Z,57.40
2019-02-25T10:03:17.321Z,57.70
2019-02-25T10:05:48.067Z,57.50
2019-02-25T10:08:17.421Z,57.20
2019-02-25T10:10:50.591Z,57.90
2019-02-25T10:13:20.017Z,57.10
2019-02-25T10:15:49.177Z,59.10
2019-02-25T10:18:19.445Z,59.10
2019-02-25T10:20:48.628Z,62.40
2019-02-25T10:23:18.351Z,61.40
2019-02-25T10:25:47.423Z,61.70
2019-02-25T10:28:16.776Z,61.10
2019-02-25T10:30:52.737Z,65.30
2019-02-25T10:33:19.041Z,62.70
2019-02-25T10:35:48.234Z,63.60
2019-02-25T10:38:17.345Z,64.10
2019-02-25T10:40:47.510Z,62.90
2019-02-25T10:43:17.816Z,62.60
2019-02-25T10:45:47.068Z,63.50
2019-02-25T10:48:17.688Z,64.10
2019-02-25T10:51:07.040Z,64.50
2019-02-25T10:53:53.621Z,63.50
2019-02-25T10:56:59.873Z,63.80
2019-02-25T10:59:29.908Z,64.50
2019-02-25T11:04:37.048Z,62.60
2019-02-25T11:07:07.805Z,61.60
2019-02-25T11:09:59.536Z,62.10
2019-02-25T11:12:30.113Z,69.40
2019-02-25T11:14:59.552Z,63.30
2019-02-25T11:17:28.741Z,61.70
2019-02-25T11:20:00.737Z,63.20
2019-02-25T11:22:29.748Z,61.50
2019-02-25T11:24:59.143Z,61.50
2019-02-25T11:27:33.149Z,62.70
2019-02-25T11:30:02.675Z,63.10
2019-02-25T11:32:35.320Z,62.60
2019-02-25T11:35:06.303Z,61.80
2019-02-25T11:37:36.234Z,62.80
2019-02-25T11:40:06.179Z,60.70
2019-02-25T11:42:35.289Z,62.00
2019-02-25T11:45:05.596Z,64.30
2019-02-25T11:47:34.960Z,64.00
2019-02-25T11:50:04.781Z,62.70
2019-02-25T11:52:34.080Z,61.70
2019-02-25T11:55:03.514Z,62.70
2019-02-25T11:57:32.574Z,64.50
2019-02-25T12:00:02.021Z,66.20
2019-02-25T12:02:31.164Z,61.00
2019-02-25T12:05:00.693Z,61.30
2019-02-25T12:07:29.981Z,64.60
2019-02-25T12:09:59.044Z,64.20
2019-02-25T12:12:30.699Z,61.40
2019-02-25T12:15:00.036Z,62.50
2019-02-25T12:17:29.175Z,61.40
2019-02-25T12:20:03.676Z,62.00
2019-02-25T12:22:33.088Z,61.60
2019-02-25T12:25:02.583Z,60.80
2019-02-25T12:27:31.707Z,62.20
2019-02-25T12:30:01.185Z,62.70
2019-02-25T12:32:31.596Z,62.00
2019-02-25T12:35:01.689Z,60.80
2019-02-25T12:37:30.892Z,61.60
2019-02-25T12:40:00.316Z,61.30
2019-02-25T12:42:29.822Z,61.10
2019-02-25T12:44:58.972Z,61.20
2019-02-25T12:47:28.036Z,61.70
2019-02-25T12:49:57.136Z,61.20
2019-02-25T12:52:26.202Z,61.80
2019-02-25T12:54:58.937Z,61.10
2019-02-25T12:57:28.685Z,62.90
2019-02-25T12:59:57.796Z,62.50
2019-02-25T13:02:30.478Z,61.80
2019-02-25T13:04:59.553Z,61.10
2019-02-25T13:07:28.679Z,62.80
2019-02-25T13:09:57.831Z,61.60
2019-02-25T13:12:27.125Z,62.10
2019-02-25T13:14:56.296Z,59.60
2019-02-25T13:17:25.372Z,61.50
2019-02-25T13:19:55.389Z,60.60
2019-02-25T13:22:24.833Z,61.50
2019-02-25T13:24:53.930Z,61.50
2019-02-25T13:27:26.612Z,61.50
2019-02-25T13:29:55.684Z,60.00
2019-02-25T13:32:25.456Z,64.20
2019-02-25T13:34:54.905Z,63.50
2019-02-25T13:37:24.405Z,64.90
2019-02-25T13:39:53.644Z,64.50
2019-02-25T13:42:23.020Z,63.20
2019-02-25T13:44:52.232Z,64.50
2019-02-25T13:47:21.681Z,64.80
2019-02-25T13:49:51.152Z,61.30
2019-02-25T13:52:20.638Z,62.00
2019-02-25T13:54:50.480Z,62.10
2019-02-25T13:57:20.084Z,62.60
2019-02-25T13:59:49.289Z,62.90
2019-02-25T14:02:19.697Z,63.20
2019-02-25T14:04:49.301Z,62.70
2019-02-25T14:07:19.408Z,63.00
2019-02-25T14:09:48.581Z,60.10
2019-02-25T14:12:17.687Z,62.60
2019-02-25T14:14:46.824Z,64.50
2019-02-25T14:17:17.423Z,62.90
2019-02-25T14:19:47.245Z,64.50
2019-02-25T14:22:17.223Z,65.70
2019-02-25T14:24:46.765Z,63.00
2019-02-25T14:27:15.985Z,62.70
2019-02-25T14:29:48.126Z,62.60
2019-02-25T14:32:16.331Z,63.60
2019-02-25T14:34:46.462Z,63.70
2019-02-25T14:37:20.757Z,62.30
2019-02-25T14:39:53.760Z,61.50
2019-02-25T14:42:23.716Z,62.10
2019-02-25T14:44:54.464Z,61.00
2019-02-25T14:47:30.485Z,60.40
2019-02-25T14:49:55.577Z,61.30
2019-02-25T14:52:26.731Z,61.80
2019-02-25T14:54:56.022Z,61.60
2019-02-25T14:57:26.796Z,61.40
2019-02-25T15:00:00.755Z,60.40
2019-02-25T15:02:30.154Z,59.90
2019-02-25T15:04:59.772Z,59.60
2019-02-25T15:07:29.173Z,59.60
2019-02-25T15:09:59.973Z,59.30
2019-02-25T15:12:31.441Z,59.10
2019-02-25T15:15:02.561Z,59.50
2019-02-25T15:17:31.552Z,59.20
2019-02-25T15:20:01.538Z,59.20
2019-02-25T15:22:32.049Z,59.70
2019-02-25T15:25:01.697Z,60.20
2019-02-25T15:27:31.343Z,60.00
2019-02-25T15:30:00.507Z,60.20
2019-02-25T15:32:31.522Z,60.70
2019-02-25T15:35:02.516Z,60.70
2019-02-25T15:37:32.041Z,60.50
2019-02-25T15:40:01.572Z,61.00
2019-02-25T15:42:32.415Z,60.40
2019-02-25T15:45:02.225Z,60.20
2019-02-25T15:47:31.743Z,60.70
2019-02-25T15:50:03.687Z,61.30
2019-02-25T15:52:39.681Z,62.00
2019-02-25T15:55:03.152Z,60.00
2019-02-25T15:57:32.867Z,60.50
2019-02-25T16:00:04.125Z,60.00
2019-02-25T16:02:33.356Z,59.90
2019-02-25T16:05:05.382Z,61.30
2019-02-25T16:07:35.675Z,61.00
2019-02-25T16:10:09.535Z,60.90
2019-02-25T16:12:38.733Z,61.80
2019-02-25T16:15:14.972Z,63.20
2019-02-25T16:17:44.777Z,62.70
2019-02-25T16:20:14.461Z,62.90
2019-02-25T16:22:45.073Z,62.60
2019-02-25T16:25:15.288Z,63.00
2019-02-25T16:27:45.663Z,62.00
2019-02-25T16:30:17.059Z,62.90
2019-02-25T16:32:48.419Z,63.00
2019-02-25T16:35:17.752Z,64.10
2019-02-25T16:37:48.597Z,63.50
2019-02-25T16:40:18.700Z,63.70
2019-02-25T16:42:48.540Z,62.90
2019-02-25T16:45:18.785Z,64.50
2019-02-25T16:47:47.949Z,65.30
2019-02-25T16:50:18.701Z,65.90
2019-02-25T16:52:49.386Z,67.30
2019-02-25T16:55:20.063Z,67.30
2019-02-25T16:57:50.637Z,69.80
2019-02-25T17:00:20.198Z,70.50
2019-02-25T17:02:49.524Z,71.80
2019-02-25T17:05:19.089Z,73.50
2019-02-25T17:07:49.014Z,74.60
2019-02-25T17:10:23.082Z,76.50
2019-02-25T17:12:52.134Z,74.80
2019-02-25T17:15:21.380Z,75.40
2019-02-25T17:17:52.445Z,79.20
2019-02-25T17:20:21.665Z,85.40
2019-02-25T17:22:50.864Z,81.10
2019-02-25T17:25:20.273Z,85.60
2019-02-25T17:28:14.339Z,83.20
2019-02-25T17:30:42.896Z,83.40
2019-02-25T17:33:14.663Z,86.10
2019-02-25T17:35:45.239Z,85.20
2019-02-25T17:38:15.692Z,87.40
2019-02-25T17:40:45.096Z,88.00
2019-02-25T17:43:15.743Z,89.40
2019-02-25T17:45:45.148Z,91.30
2019-02-25T17:48:16.170Z,91.00
2019-02-25T17:50:46.624Z,92.40
2019-02-25T17:53:16.072Z,90.90
2019-02-25T17:55:45.732Z,92.30
2019-02-25T17:58:15.599Z,92.60
2019-02-25T18:00:46.873Z,93.00
2019-02-25T18:03:17.431Z,92.60
2019-02-25T18:05:47.635Z,93.90
2019-02-25T18:08:16.840Z,93.70
2019-02-25T18:10:47.478Z,93.50
2019-02-25T18:13:17.788Z,93.10
2019-02-25T18:15:49.198Z,93.30
2019-02-25T18:18:20.254Z,93.50
2019-02-25T18:20:52.851Z,93.60
2019-02-25T18:23:58.729Z,94.10
2019-02-25T18:26:30.760Z,94.40
2019-02-25T18:29:20.770Z,95.40
2019-02-25T18:31:51.228Z,96.40
2019-02-25T18:34:20.805Z,97.20
2019-02-25T18:36:53.725Z,98.40
2019-02-25T18:39:25.259Z,97.40
2019-02-25T18:41:55.546Z,97.70
2019-02-25T18:44:26.002Z,97.20
2019-02-25T18:46:57.003Z,98.40
2019-02-25T18:49:28.161Z,98.20
2019-02-25T18:51:58.436Z,98.30
2019-02-25T18:54:27.991Z,98.40
2019-02-25T18:56:59.089Z,98.60
2019-02-25T18:59:28.696Z,98.60
2019-02-25T19:01:59.099Z,99.30
2019-02-25T19:04:29.913Z,99.90
2019-02-25T19:06:59.852Z,99.90
2019-02-25T19:09:31.825Z,99.90
2019-02-25T19:12:01.732Z,99.90
2019-02-25T19:14:32.846Z,99.90
2019-02-25T19:17:04.271Z,99.90
2019-02-25T19:19:34.213Z,99.90
2019-02-25T19:22:05.959Z,99.90
2019-02-25T19:24:39.696Z,99.90
2019-02-25T19:27:08.668Z,99.90
2019-02-25T19:29:37.516Z,99.90
2019-02-25T19:32:07.320Z,99.90
2019-02-25T19:34:39.238Z,99.90
2019-02-25T19:37:09.341Z,99.90
2019-02-25T19:39:41.526Z,99.90
2019-02-25T19:42:15.190Z,99.90
2019-02-25T19:44:43.412Z,99.90
2019-02-25T19:47:14.396Z,99.90
2019-02-25T19:49:46.293Z,99.90
2019-02-25T19:52:16.796Z,99.90
2019-02-25T19:54:48.817Z,99.90
2019-02-25T19:57:18.801Z,99.90
2019-02-25T19:59:50.581Z,99.90
2019-02-25T20:02:19.534Z,99.90
2019-02-25T20:04:51.933Z,99.90
2019-02-25T20:07:25.721Z,99.90
2019-02-25T20:09:55.276Z,99.90
2019-02-25T20:12:24.021Z,99.90
2019-02-25T20:14:54.001Z,99.90
2019-02-25T20:17:27.800Z,99.90
2019-02-25T20:19:54.183Z,99.90
2019-02-25T20:22:23.540Z,99.90
2019-02-25T20:24:55.030Z,99.90
2019-02-25T20:27:24.502Z,99.90
2019-02-25T20:29:55.739Z,99.90
2019-02-25T20:32:24.991Z,99.90
2019-02-25T20:34:56.629Z,99.90
2019-02-25T20:37:27.366Z,99.90
2019-02-25T20:39:57.386Z,99.90
2019-02-25T20:42:28.439Z,99.90
2019-02-25T20:44:59.879Z,99.90
2019-02-25T20:47:29.466Z,99.90
2019-02-25T20:50:00.682Z,99.90
2019-02-25T20:52:29.896Z,99.90
2019-02-25T20:55:01.066Z,99.90
2019-02-25T20:57:31.638Z,99.90
2019-02-25T21:00:01.083Z,99.90
2019-02-25T21:02:30.552Z,99.90
2019-02-25T21:04:59.644Z,99.90
2019-02-25T21:07:29.693Z,99.90
2019-02-25T21:10:00.875Z,99.90
2019-02-25T21:12:31.536Z,99.90
2019-02-25T21:15:01.042Z,99.90
2019-02-25T21:17:30.835Z,99.90
2019-02-25T21:20:02.927Z,99.90
2019-02-25T21:22:34.018Z,99.90
2019-02-25T21:25:07.271Z,99.90
2019-02-25T21:27:37.013Z,99.90
2019-02-25T21:30:09.867Z,99.90
2019-02-25T21:32:40.593Z,99.90
2019-02-25T21:35:10.632Z,99.90
2019-02-25T21:37:43.377Z,99.90
2019-02-25T21:40:13.125Z,99.90
2019-02-25T21:42:44.359Z,99.90
2019-02-25T21:45:17.966Z,99.90
2019-02-25T21:47:50.059Z,99.90
2019-02-25T21:50:17.944Z,99.90
2019-02-25T21:52:47.936Z,99.90
2019-02-25T21:55:17.887Z,99.90
2019-02-25T21:57:48.995Z,99.90
2019-02-25T22:00:18.868Z,99.90
2019-02-25T22:02:50.927Z,99.90
2019-02-25T22:05:21.184Z,99.90
2019-02-25T22:07:54.375Z,99.90
2019-02-25T22:10:22.635Z,99.90
2019-02-25T22:12:52.537Z,99.90
2019-02-25T22:15:23.188Z,99.90
2019-02-25T22:17:53.414Z,99.90
2019-02-25T22:20:24.995Z,99.90
2019-02-25T22:22:56.789Z,99.90
2019-02-25T22:25:24.588Z,99.90
2019-02-25T22:27:58.910Z,99.90
2019-02-25T22:30:28.175Z,99.90
2019-02-25T22:33:00.081Z,99.90
2019-02-25T22:35:33.130Z,99.90
2019-02-25T22:38:01.143Z,99.90
2019-02-25T22:40:34.229Z,99.90
2019-02-25T22:43:03.940Z,99.90
2019-02-25T22:45:35.944Z,99.90
2019-02-25T22:48:05.000Z,99.90
2019-02-25T22:50:36.025Z,99.90
2019-02-25T22:53:08.901Z,99.90
2019-02-25T22:55:41.791Z,99.90
2019-02-25T22:58:10.931Z,99.90
2019-02-25T23:00:53.939Z,99.90
2019-02-25T23:03:25.789Z,99.90
2019-02-25T23:05:56.629Z,99.90
2019-02-25T23:08:26.480Z,99.90
2019-02-25T23:10:55.595Z,99.90
2019-02-25T23:13:24.960Z,99.90
2019-02-25T23:15:55.880Z,99.90
2019-02-25T23:18:27.760Z,99.90
2019-02-25T23:20:59.767Z,99.90
2019-02-25T23:23:28.712Z,99.90
2019-02-25T23:25:58.732Z,99.90
2019-02-25T23:28:30.334Z,99.90
2019-02-25T23:30:59.700Z,99.90
2019-02-25T23:33:29.131Z,99.90
2019-02-25T23:35:58.299Z,99.90
2019-02-25T23:38:27.437Z,99.90
2019-02-25T23:40:56.577Z,99.90
2019-02-25T23:43:26.135Z,99.90
2019-02-25T23:45:57.922Z,99.90
2019-02-25T23:48:31.245Z,99.90
2019-02-25T23:50:59.617Z,99.90
2019-02-25T23:53:31.061Z,99.90
2019-02-25T23:56:00.765Z,99.90
2019-02-25T23:58:30.249Z,99.90
